ADDS METAR Data INFO
IDs: Format: Raw Decoded Include TAF

Data at: 0710 UTC 19 Oct 2017

KFFT 190653Z AUTO 00000KT 10SM CLR 08/05 A3021 RMK AO2 SLP227 T00780050
KFFT 190553Z AUTO 00000KT 10SM CLR 07/05 A3021 RMK AO2 SLP229 T00720050 10133 20072 55001
KFFT 190453Z AUTO 00000KT 10SM CLR 09/06 A3020 RMK AO2 SLP226 T00890056 402170033
KFFT 190353Z AUTO 21004KT 10SM CLR 09/06 A3021 RMK AO2 SLP228 T00890056
KFFT 190253Z AUTO 21003KT 10SM CLR 10/06 A3021 RMK AO2 SLP231 T01000061 55001
KFFT 190153Z AUTO 17003KT 10SM CLR 11/06 A3021 RMK AO2 SLP230 T01060061
KFFT 190053Z AUTO 00000KT 10SM CLR 11/07 A3022 RMK AO2 SLP235 T01110067
KFFT 182353Z AUTO 21003KT 10SM CLR 13/07 A3022 RMK AO2 SLP234 T01330067 10217 20128 56001
KFFT 182253Z AUTO 20005KT 10SM CLR 17/06 A3022 RMK AO2 SLP234 T01720061
KFFT 182153Z AUTO 21006KT 10SM CLR 20/06 A3022 RMK AO2 SLP231 T02000061
KFFT 182053Z AUTO VRB06KT 10SM CLR 21/05 A3022 RMK AO2 SLP234 T02060050 56017
KFFT 181953Z AUTO 21006KT 10SM CLR 20/06 A3024 RMK AO2 SLP239 T02000056
KFFT 181853Z AUTO VRB06KT 10SM CLR 21/06 A3025 RMK AO2 SLP243 T02110056
KFFT 181753Z AUTO VRB04KT 10SM CLR 21/06 A3028 RMK AO2 SLP251 T02060056 10206 20033 58017
KFFT 181653Z AUTO 24007KT 10SM CLR 19/06 A3031 RMK AO2 SLP263 T01940056
KFFT 181553Z AUTO 20005KT 10SM CLR 18/07 A3032 RMK AO2 SLP268 T01780072
KFFT 181453Z AUTO 21006KT 10SM CLR 16/07 A3033 RMK AO2 SLP269 T01560072 51008
KFFT 181353Z AUTO 14005KT 10SM CLR 10/06 A3033 RMK AO2 SLP271 T01000061
KFFT 181253Z AUTO 00000KT 10SM CLR 06/04 A3031 RMK AO2 SLP267 T00610044
KFFT 181202Z AUTO 00000KT 4SM BR CLR 03/02 A3030 RMK AO2 T00330017
KFFT 181200Z AUTO 00000KT 1 1/2SM BR CLR 03/02 A3030 RMK AO2 T00330017
KFFT 181153Z AUTO 00000KT 3/4SM BR CLR 03/02 A3030 RMK AO2 SLP264 T00330017 10056 20033 51011
KFFT 181150Z AUTO 00000KT 1 1/2SM BR CLR 03/01 A3030 RMK AO2
KFFT 181053Z AUTO 00000KT 10SM CLR 04/02 A3029 RMK AO2 SLP259 T00390017
KFFT 180953Z AUTO 00000KT 10SM CLR 04/02 A3028 RMK AO2 SLP255 T00390017
KFFT 180853Z AUTO 00000KT 10SM CLR 04/03 A3027 RMK AO2 SLP251 T00440028 55001
KFFT 180753Z AUTO 00000KT 10SM CLR 04/03 A3027 RMK AO2 SLP249 T00440028
KFFT 180653Z AUTO 00000KT 10SM CLR 06/03 A3027 RMK AO2 SLP250 T00560033
KFFT 180553Z AUTO 00000KT 10SM CLR 06/03 A3027 RMK AO2 SLP251 T00560033 10111 20050 58002
KFFT 180453Z AUTO 00000KT 10SM CLR 06/03 A3028 RMK AO2 SLP254 T00560033 401890022
KFFT 180353Z AUTO 00000KT 10SM CLR 07/04 A3028 RMK AO2 SLP253 T00670044
KFFT 180253Z AUTO 00000KT 10SM CLR 07/04 A3028 RMK AO2 SLP254 T00720044 51003
KFFT 180153Z AUTO 00000KT 10SM CLR 08/05 A3028 RMK AO2 SLP255 T00830050
KFFT 180053Z AUTO 00000KT 10SM CLR 10/06 A3027 RMK AO2 SLP254 T01000056
KFFT 172353Z AUTO 00000KT 10SM CLR 11/06 A3027 RMK AO2 SLP253 T01110061 10189 20106 55000
KFFT 172253Z AUTO 00000KT 10SM CLR 14/06 A3026 RMK AO2 SLP249 T01390061
KFFT 172153Z AUTO 00000KT 10SM CLR 18/03 A3026 RMK AO2 SLP248 T01780033
KFFT 172053Z AUTO VRB03KT 10SM CLR 18/03 A3027 RMK AO2 SLP251 T01780033 56020
KFFT 171953Z AUTO VRB03KT 10SM CLR 19/03 A3027 RMK AO2 SLP251 T01890033